createdAt,value
2019-03-28T00:00:16.601Z,5.10
2019-03-28T00:01:16.667Z,5.14
2019-03-28T00:02:17.013Z,5.10
2019-03-28T00:03:16.307Z,5.13
2019-03-28T00:04:17.152Z,5.17
2019-03-28T00:05:16.586Z,5.17
2019-03-28T00:06:16.902Z,5.13
2019-03-28T00:07:17.194Z,5.14
2019-03-28T00:08:16.511Z,5.17
2019-03-28T00:09:16.798Z,5.13
2019-03-28T00:10:17.127Z,5.09
2019-03-28T00:11:17.195Z,5.07
2019-03-28T00:12:16.475Z,5.09
2019-03-28T00:13:16.745Z,5.05
2019-03-28T00:14:17.054Z,5.05
2019-03-28T00:15:16.340Z,5.03
2019-03-28T00:16:16.639Z,5.03
2019-03-28T00:17:16.846Z,5.00
2019-03-28T00:18:17.120Z,4.99
2019-03-28T00:19:16.452Z,4.95
2019-03-28T00:20:16.765Z,4.91
2019-03-28T00:21:16.804Z,4.84
2019-03-28T00:22:17.324Z,4.79
2019-03-28T00:23:16.731Z,4.71
2019-03-28T00:24:17.071Z,4.68
2019-03-28T00:25:16.396Z,4.64
2019-03-28T00:26:29.034Z,4.61
2019-03-28T00:27:16.920Z,4.58
2019-03-28T00:28:17.221Z,4.64
2019-03-28T00:29:16.546Z,4.64
2019-03-28T00:30:16.857Z,4.58
2019-03-28T00:31:16.915Z,4.60
2019-03-28T00:32:17.046Z,4.58
2019-03-28T00:33:16.377Z,4.58
2019-03-28T00:34:16.689Z,4.54
2019-03-28T00:35:17.011Z,4.54
2019-03-28T00:36:17.116Z,4.54
2019-03-28T00:37:16.511Z,4.51
2019-03-28T00:38:16.807Z,4.47
2019-03-28T00:39:17.138Z,4.48
2019-03-28T00:40:16.466Z,4.47
2019-03-28T00:41:16.495Z,4.46
2019-03-28T00:42:16.833Z,4.38
2019-03-28T00:43:17.125Z,4.36
2019-03-28T00:44:16.438Z,4.31
2019-03-28T00:45:16.735Z,4.33
2019-03-28T00:46:17.066Z,4.28
2019-03-28T00:47:16.443Z,4.24
2019-03-28T00:48:16.718Z,4.23
2019-03-28T00:49:16.998Z,4.20
2019-03-28T00:50:16.302Z,4.17
2019-03-28T00:51:16.355Z,4.16
2019-03-28T00:52:16.644Z,4.16
2019-03-28T00:53:16.960Z,4.13
2019-03-28T00:54:16.245Z,4.13
2019-03-28T00:55:16.566Z,4.08
2019-03-28T00:56:16.856Z,4.08
2019-03-28T00:57:17.194Z,4.06
2019-03-28T00:58:16.509Z,4.00
2019-03-28T00:59:16.808Z,3.99
2019-03-28T01:00:17.127Z,3.98
2019-03-28T01:01:17.185Z,3.95
2019-03-28T01:02:16.505Z,3.93
2019-03-28T01:03:16.778Z,3.90
2019-03-28T01:04:17.092Z,3.88
2019-03-28T01:05:17.134Z,3.88
2019-03-28T01:06:16.624Z,3.85
2019-03-28T01:07:16.949Z,3.83
2019-03-28T01:08:16.223Z,3.78
2019-03-28T01:09:16.482Z,3.79
2019-03-28T01:10:16.800Z,3.78
2019-03-28T01:11:16.859Z,3.79
2019-03-28T01:12:17.138Z,3.75
2019-03-28T01:13:16.396Z,3.74
2019-03-28T01:14:16.722Z,3.72
2019-03-28T01:15:17.017Z,3.67
2019-03-28T01:16:16.341Z,3.68
2019-03-28T01:17:16.636Z,3.64
2019-03-28T01:18:16.935Z,3.62
2019-03-28T01:19:16.223Z,3.62
2019-03-28T01:20:16.524Z,3.64
2019-03-28T01:21:16.566Z,3.58
2019-03-28T01:22:16.850Z,3.54
2019-03-28T01:23:17.187Z,3.51
2019-03-28T01:24:16.492Z,3.50
2019-03-28T01:25:16.805Z,3.49
2019-03-28T01:26:17.081Z,3.51
2019-03-28T01:27:16.382Z,3.49
2019-03-28T01:28:16.706Z,3.49
2019-03-28T01:29:17.017Z,3.47
2019-03-28T01:30:16.288Z,3.46
2019-03-28T01:31:16.357Z,3.46
2019-03-28T01:32:16.980Z,3.46
2019-03-28T01:33:16.288Z,3.44
2019-03-28T01:34:16.569Z,3.43
2019-03-28T01:35:16.893Z,3.43
2019-03-28T01:36:17.224Z,3.44
2019-03-28T01:37:16.536Z,3.43
2019-03-28T01:38:16.840Z,3.36
2019-03-28T01:39:17.221Z,3.39
2019-03-28T01:40:16.565Z,3.39
2019-03-28T01:41:16.592Z,3.43
2019-03-28T01:42:16.919Z,3.40
2019-03-28T01:43:17.215Z,3.39
2019-03-28T01:44:17.283Z,3.37
2019-03-28T01:45:16.805Z,3.34
2019-03-28T01:46:17.147Z,3.36
2019-03-28T01:47:16.454Z,3.37
2019-03-28T01:48:16.713Z,3.33
2019-03-28T01:49:17.018Z,3.33
2019-03-28T01:50:16.341Z,3.33
2019-03-28T01:51:16.370Z,3.31
2019-03-28T01:52:16.992Z,3.30
2019-03-28T01:53:16.287Z,3.39
2019-03-28T01:54:16.578Z,3.40
2019-03-28T01:55:16.898Z,3.47
2019-03-28T01:56:17.211Z,3.51
2019-03-28T01:57:16.482Z,3.53
2019-03-28T01:58:16.795Z,3.46
2019-03-28T01:59:17.103Z,3.43
2019-03-28T02:00:16.413Z,3.46
2019-03-28T02:01:16.456Z,3.44
2019-03-28T02:02:16.729Z,3.46
2019-03-28T02:03:17.051Z,3.43
2019-03-28T02:04:16.369Z,3.46
2019-03-28T02:05:16.675Z,3.41
2019-03-28T02:06:16.997Z,3.39
2019-03-28T02:07:16.318Z,3.39
2019-03-28T02:08:16.625Z,3.37
2019-03-28T02:09:16.947Z,3.40
2019-03-28T02:10:16.262Z,3.36
2019-03-28T02:11:16.288Z,3.31
2019-03-28T02:12:16.590Z,3.23
2019-03-28T02:13:16.880Z,3.23
2019-03-28T02:14:17.193Z,3.26
2019-03-28T02:15:16.555Z,3.23
2019-03-28T02:16:16.869Z,3.19
2019-03-28T02:17:17.496Z,3.19
2019-03-28T02:18:16.780Z,3.17
2019-03-28T02:19:17.052Z,3.16
2019-03-28T02:20:16.348Z,3.16
2019-03-28T02:21:16.397Z,3.13
2019-03-28T02:22:16.699Z,3.17
2019-03-28T02:23:17.036Z,3.16
2019-03-28T02:24:16.326Z,3.16
2019-03-28T02:25:17.226Z,3.19
2019-03-28T02:26:16.666Z,3.16
2019-03-28T02:27:23.664Z,3.13
2019-03-28T02:28:16.916Z,3.13
2019-03-28T02:29:17.215Z,3.13
2019-03-28T02:30:16.531Z,3.09
2019-03-28T02:31:16.875Z,3.13
2019-03-28T02:32:16.419Z,3.13
2019-03-28T02:33:16.715Z,3.12
2019-03-28T02:34:17.037Z,3.13
2019-03-28T02:35:16.378Z,3.19
2019-03-28T02:36:16.699Z,3.20
2019-03-28T02:37:17.030Z,3.16
2019-03-28T02:38:16.326Z,3.17
2019-03-28T02:39:16.648Z,3.17
2019-03-28T02:40:17.090Z,3.19
2019-03-28T02:41:17.021Z,3.17
2019-03-28T02:42:16.342Z,3.16
2019-03-28T02:43:16.673Z,3.16
2019-03-28T02:44:16.982Z,3.16
2019-03-28T02:45:16.293Z,3.14
2019-03-28T02:46:16.617Z,3.16
2019-03-28T02:47:16.892Z,3.16
2019-03-28T02:48:17.190Z,3.16
2019-03-28T02:49:16.509Z,3.19
2019-03-28T02:50:16.831Z,3.17
2019-03-28T02:51:16.973Z,3.19
2019-03-28T02:52:16.298Z,3.14
2019-03-28T02:53:16.600Z,3.14
2019-03-28T02:54:16.929Z,3.14
2019-03-28T02:55:16.260Z,3.12
2019-03-28T02:56:16.582Z,3.12
2019-03-28T02:57:16.928Z,3.09
2019-03-28T02:58:16.237Z,3.07
2019-03-28T02:59:16.544Z,3.09
2019-03-28T03:00:17.001Z,3.07
2019-03-28T03:01:16.922Z,3.10
2019-03-28T03:02:16.249Z,3.12
2019-03-28T03:03:16.547Z,3.16
2019-03-28T03:04:16.868Z,3.22
2019-03-28T03:05:17.173Z,3.19
2019-03-28T03:06:16.478Z,3.23
2019-03-28T03:07:16.787Z,3.27
2019-03-28T03:08:17.070Z,3.26
2019-03-28T03:09:16.422Z,3.30
2019-03-28T03:10:17.572Z,3.34
2019-03-28T03:11:16.773Z,3.37
2019-03-28T03:12:17.392Z,3.34
2019-03-28T03:13:16.712Z,3.34
2019-03-28T03:14:16.990Z,3.36
2019-03-28T03:15:16.347Z,3.39
2019-03-28T03:16:16.643Z,3.36
2019-03-28T03:17:16.965Z,3.36
2019-03-28T03:18:16.268Z,3.36
2019-03-28T03:19:16.582Z,3.34
2019-03-28T03:20:17.479Z,3.34
2019-03-28T03:21:16.945Z,3.40
2019-03-28T03:22:16.239Z,3.43
2019-03-28T03:23:16.574Z,3.41
2019-03-28T03:24:16.868Z,3.43
2019-03-28T03:25:17.165Z,3.40
2019-03-28T03:26:16.515Z,3.40
2019-03-28T03:27:16.817Z,3.41
2019-03-28T03:28:17.105Z,3.41
2019-03-28T03:29:16.403Z,3.40
2019-03-28T03:30:16.739Z,3.41
2019-03-28T03:31:20.827Z,3.39
2019-03-28T03:32:16.449Z,3.43
2019-03-28T03:33:16.794Z,3.39
2019-03-28T03:34:17.079Z,3.39
2019-03-28T03:35:16.404Z,3.40
2019-03-28T03:36:16.732Z,3.39
2019-03-28T03:37:17.047Z,3.40
2019-03-28T03:38:16.376Z,3.43
2019-03-28T03:39:16.687Z,3.43
2019-03-28T03:40:16.996Z,3.44
2019-03-28T03:41:17.064Z,3.41
2019-03-28T03:42:16.367Z,3.43
2019-03-28T03:43:16.683Z,3.43
2019-03-28T03:44:17.012Z,3.41
2019-03-28T03:45:16.316Z,3.41
2019-03-28T03:46:16.600Z,3.51
2019-03-28T03:47:16.924Z,3.55
2019-03-28T03:48:17.200Z,3.53
2019-03-28T03:49:16.533Z,3.55
2019-03-28T03:50:16.855Z,3.57
2019-03-28T03:51:16.901Z,3.54
2019-03-28T03:52:17.200Z,3.55
2019-03-28T03:53:16.498Z,3.61
2019-03-28T03:54:16.806Z,3.62
2019-03-28T03:55:17.139Z,3.57
2019-03-28T03:56:16.426Z,3.57
2019-03-28T03:57:16.711Z,3.57
2019-03-28T03:58:18.454Z,3.58
2019-03-28T03:59:16.426Z,3.67
2019-03-28T04:00:16.778Z,3.67
2019-03-28T04:01:16.791Z,3.79
2019-03-28T04:02:17.140Z,3.72
2019-03-28T04:03:16.428Z,3.61
2019-03-28T04:04:16.778Z,3.58
2019-03-28T04:05:17.073Z,3.58
2019-03-28T04:06:16.388Z,3.58
2019-03-28T04:07:16.698Z,3.57
2019-03-28T04:08:17.010Z,3.60
2019-03-28T04:09:16.322Z,3.58
2019-03-28T04:10:16.721Z,3.60
2019-03-28T04:11:16.763Z,3.62
2019-03-28T04:12:17.062Z,3.64
2019-03-28T04:13:16.364Z,3.68
2019-03-28T04:14:16.677Z,3.67
2019-03-28T04:15:17.009Z,3.69
2019-03-28T04:16:16.325Z,3.67
2019-03-28T04:17:16.647Z,3.65
2019-03-28T04:18:16.967Z,3.64
2019-03-28T04:19:16.286Z,3.58
2019-03-28T04:20:16.598Z,3.58
2019-03-28T04:21:17.581Z,3.68
2019-03-28T04:22:17.158Z,3.67
2019-03-28T04:23:16.509Z,3.71
2019-03-28T04:24:16.848Z,3.72
2019-03-28T04:25:17.178Z,3.71
2019-03-28T04:26:16.492Z,3.74
2019-03-28T04:27:16.822Z,3.71
2019-03-28T04:28:30.643Z,3.69
2019-03-28T04:29:16.519Z,3.71
2019-03-28T04:30:16.854Z,3.71
2019-03-28T04:31:16.892Z,3.67
2019-03-28T04:32:17.217Z,3.65
2019-03-28T04:33:16.516Z,3.61
2019-03-28T04:34:16.835Z,3.61
2019-03-28T04:35:17.133Z,3.54
2019-03-28T04:36:16.446Z,3.57
2019-03-28T04:37:16.713Z,3.58
2019-03-28T04:38:16.988Z,3.55
2019-03-28T04:39:16.641Z,3.58
2019-03-28T04:40:17.156Z,3.58
2019-03-28T04:41:17.179Z,3.58
2019-03-28T04:42:16.469Z,3.61
2019-03-28T04:43:16.774Z,3.58
2019-03-28T04:44:17.097Z,3.57
2019-03-28T04:45:16.426Z,3.54
2019-03-28T04:46:16.728Z,3.55
2019-03-28T04:47:17.015Z,3.55
2019-03-28T04:48:16.313Z,3.54
2019-03-28T04:49:16.598Z,3.51
2019-03-28T04:50:16.909Z,3.51
2019-03-28T04:51:16.981Z,3.50
2019-03-28T04:52:16.271Z,3.51
2019-03-28T04:53:16.584Z,3.51
2019-03-28T04:54:16.866Z,3.51
2019-03-28T04:55:17.177Z,3.51
2019-03-28T04:56:16.492Z,3.53
2019-03-28T04:57:16.819Z,3.53
2019-03-28T04:58:17.114Z,3.57
2019-03-28T04:59:16.404Z,3.53
2019-03-28T05:00:16.734Z,3.49
2019-03-28T05:01:16.740Z,3.50
2019-03-28T05:02:17.054Z,3.50
2019-03-28T05:03:16.355Z,3.49
2019-03-28T05:04:16.670Z,3.51
2019-03-28T05:05:16.978Z,3.50
2019-03-28T05:06:16.373Z,3.55
2019-03-28T05:07:16.688Z,3.58
2019-03-28T05:08:16.992Z,3.55
2019-03-28T05:09:16.291Z,3.57
2019-03-28T05:10:16.603Z,3.60
2019-03-28T05:11:16.654Z,3.58
2019-03-28T05:12:16.937Z,3.60
2019-03-28T05:13:16.238Z,3.62
2019-03-28T05:14:16.559Z,3.71
2019-03-28T05:15:16.884Z,3.68
2019-03-28T05:16:17.189Z,3.68
2019-03-28T05:17:16.478Z,3.72
2019-03-28T05:18:16.754Z,3.72
2019-03-28T05:19:17.051Z,3.74
2019-03-28T05:20:16.388Z,3.75
2019-03-28T05:21:16.384Z,3.78
2019-03-28T05:22:16.703Z,3.79
2019-03-28T05:23:16.989Z,3.78
2019-03-28T05:24:16.288Z,3.81
2019-03-28T05:25:16.591Z,3.81
2019-03-28T05:26:16.883Z,3.81
2019-03-28T05:27:17.169Z,3.79
2019-03-28T05:28:16.480Z,3.82
2019-03-28T05:29:16.787Z,3.82
2019-03-28T05:30:17.542Z,3.85
2019-03-28T05:31:17.164Z,3.86
2019-03-28T05:32:16.466Z,3.89
2019-03-28T05:33:17.285Z,3.86
2019-03-28T05:34:16.782Z,3.88
2019-03-28T05:35:17.109Z,3.78
2019-03-28T05:36:16.431Z,3.75
2019-03-28T05:37:17.195Z,3.68
2019-03-28T05:38:16.487Z,3.69
2019-03-28T05:39:16.788Z,3.69
2019-03-28T05:40:17.116Z,3.72
2019-03-28T05:41:17.584Z,3.69
2019-03-28T05:42:16.947Z,3.74
2019-03-28T05:43:16.237Z,3.78
2019-03-28T05:44:16.553Z,3.77
2019-03-28T05:45:16.853Z,3.85
2019-03-28T05:46:17.150Z,3.88
2019-03-28T05:47:16.474Z,3.88
2019-03-28T05:48:16.790Z,3.95
2019-03-28T05:49:17.099Z,4.00
2019-03-28T05:50:16.452Z,4.06
2019-03-28T05:51:16.469Z,4.10
2019-03-28T05:52:16.778Z,4.12
2019-03-28T05:53:17.106Z,4.12
2019-03-28T05:54:16.420Z,4.13
2019-03-28T05:55:16.734Z,4.14
2019-03-28T05:56:17.049Z,4.20
2019-03-28T05:57:16.398Z,4.21
2019-03-28T05:58:16.702Z,4.38
2019-03-28T05:59:17.029Z,4.41
2019-03-28T06:00:16.369Z,4.41
2019-03-28T06:01:16.415Z,4.41
2019-03-28T06:02:16.735Z,4.47
2019-03-28T06:03:17.052Z,4.53
2019-03-28T06:04:16.333Z,4.57
2019-03-28T06:05:16.621Z,4.64
2019-03-28T06:06:16.940Z,4.69
2019-03-28T06:07:17.228Z,4.67
2019-03-28T06:08:16.561Z,4.65
2019-03-28T06:09:16.886Z,4.72
2019-03-28T06:10:17.172Z,4.76
2019-03-28T06:11:16.224Z,4.75
2019-03-28T06:12:18.965Z,4.81
2019-03-28T06:13:16.602Z,4.78
2019-03-28T06:14:16.921Z,4.84
2019-03-28T06:15:17.193Z,4.88
2019-03-28T06:16:16.551Z,4.85
2019-03-28T06:17:16.826Z,4.92
2019-03-28T06:18:17.082Z,4.95
2019-03-28T06:19:16.405Z,5.02
2019-03-28T06:20:16.713Z,5.02
2019-03-28T06:21:16.756Z,5.05
2019-03-28T06:22:17.078Z,5.10
2019-03-28T06:23:16.392Z,5.13
2019-03-28T06:24:16.654Z,5.12
2019-03-28T06:25:16.966Z,5.10
2019-03-28T06:26:16.263Z,5.17
2019-03-28T06:27:16.565Z,5.24
2019-03-28T06:28:16.868Z,5.30
2019-03-28T06:29:23.488Z,5.34
2019-03-28T06:30:16.600Z,5.38
2019-03-28T06:31:16.594Z,5.37
2019-03-28T06:32:16.901Z,5.43
2019-03-28T06:33:17.188Z,5.47
2019-03-28T06:34:16.505Z,5.51
2019-03-28T06:35:16.824Z,5.54
2019-03-28T06:36:17.140Z,5.52
2019-03-28T06:37:16.476Z,5.54
2019-03-28T06:38:16.769Z,5.62
2019-03-28T06:39:17.091Z,5.70
2019-03-28T06:40:16.411Z,5.75
2019-03-28T06:41:16.495Z,5.81
2019-03-28T06:42:16.784Z,5.79
2019-03-28T06:43:17.104Z,5.78
2019-03-28T06:44:16.393Z,5.68
2019-03-28T06:45:16.723Z,5.68
2019-03-28T06:46:17.027Z,5.78
2019-03-28T06:47:16.352Z,5.75
2019-03-28T06:48:16.646Z,5.82
2019-03-28T06:49:16.945Z,5.81
2019-03-28T06:50:16.239Z,5.88
2019-03-28T06:51:16.277Z,5.96
2019-03-28T06:52:16.582Z,5.96
2019-03-28T06:53:16.860Z,6.02
2019-03-28T06:54:17.170Z,6.00
2019-03-28T06:55:16.482Z,6.08
2019-03-28T06:56:17.299Z,6.16
2019-03-28T06:57:18.896Z,6.03
2019-03-28T06:58:16.341Z,6.12
2019-03-28T06:59:16.672Z,6.14
2019-03-28T07:00:16.986Z,6.10
2019-03-28T07:01:17.031Z,6.20
2019-03-28T07:02:17.323Z,6.27
2019-03-28T07:03:16.860Z,6.33
2019-03-28T07:04:17.168Z,6.27
2019-03-28T07:05:16.482Z,6.30
2019-03-28T07:06:16.795Z,6.14
2019-03-28T07:07:18.537Z,6.16
2019-03-28T07:08:17.097Z,6.23
2019-03-28T07:09:16.433Z,6.34
2019-03-28T07:10:16.754Z,6.21
2019-03-28T07:11:16.811Z,6.23
2019-03-28T07:12:17.083Z,6.23
2019-03-28T07:13:16.401Z,6.47
2019-03-28T07:14:16.698Z,6.47
2019-03-28T07:15:16.996Z,6.55
2019-03-28T07:16:16.301Z,6.58
2019-03-28T07:17:16.606Z,6.49
2019-03-28T07:18:16.913Z,6.48
2019-03-28T07:19:16.239Z,6.58
2019-03-28T07:20:16.590Z,6.61
2019-03-28T07:21:16.600Z,6.48
2019-03-28T07:22:16.898Z,6.52
2019-03-28T07:23:17.169Z,6.59
2019-03-28T07:24:16.504Z,6.59
2019-03-28T07:25:16.786Z,6.58
2019-03-28T07:26:17.087Z,6.61
2019-03-28T07:27:17.262Z,6.63
2019-03-28T07:28:16.818Z,6.68
2019-03-28T07:29:17.152Z,6.85
2019-03-28T07:30:16.452Z,6.94
2019-03-28T07:31:16.506Z,6.95
2019-03-28T07:32:16.820Z,7.12
2019-03-28T07:33:17.148Z,7.12
2019-03-28T07:34:16.474Z,7.05
2019-03-28T07:35:16.797Z,7.00
2019-03-28T07:36:17.153Z,7.09
2019-03-28T07:37:16.470Z,7.06
2019-03-28T07:38:16.788Z,7.06
2019-03-28T07:39:19.026Z,7.13
2019-03-28T07:40:16.655Z,7.13
2019-03-28T07:41:16.759Z,7.27
2019-03-28T07:42:17.069Z,7.33
2019-03-28T07:43:16.363Z,7.10
2019-03-28T07:44:16.742Z,7.35
2019-03-28T07:45:17.024Z,7.41
2019-03-28T07:46:16.348Z,7.45
2019-03-28T07:47:16.662Z,7.55
2019-03-28T07:48:16.974Z,7.62
2019-03-28T07:49:16.267Z,7.58
2019-03-28T07:50:16.581Z,7.71
2019-03-28T07:51:16.618Z,7.77
2019-03-28T07:52:19.944Z,7.80
2019-03-28T07:53:19.665Z,7.85
2019-03-28T07:54:16.479Z,8.00
2019-03-28T07:55:16.963Z,8.12
2019-03-28T07:56:16.306Z,7.75
2019-03-28T07:57:16.586Z,7.78
2019-03-28T07:58:16.917Z,7.86
2019-03-28T07:59:16.245Z,7.96
2019-03-28T08:00:16.566Z,7.92
2019-03-28T08:01:18.163Z,8.00
2019-03-28T08:02:16.609Z,7.86
2019-03-28T08:03:16.911Z,7.99
2019-03-28T08:04:17.223Z,8.06
2019-03-28T08:05:16.583Z,8.19
2019-03-28T08:06:16.896Z,7.98
2019-03-28T08:07:17.299Z,8.27
2019-03-28T08:08:16.610Z,8.29
2019-03-28T08:09:17.612Z,8.30
2019-03-28T08:10:17.098Z,8.37
2019-03-28T08:11:17.198Z,8.43
2019-03-28T08:12:22.732Z,8.31
2019-03-28T08:13:16.885Z,8.20
2019-03-28T08:14:17.203Z,8.29
2019-03-28T08:15:16.521Z,8.29
2019-03-28T08:16:16.845Z,8.59
2019-03-28T08:17:17.158Z,8.69
2019-03-28T08:18:16.473Z,8.17
2019-03-28T08:19:16.758Z,8.30
2019-03-28T08:20:17.067Z,7.88
2019-03-28T08:21:17.110Z,7.88
2019-03-28T08:22:16.446Z,8.17
2019-03-28T08:23:16.762Z,8.27
2019-03-28T08:24:17.035Z,8.17
2019-03-28T08:25:16.319Z,8.02
2019-03-28T08:26:16.615Z,7.99
2019-03-28T08:27:16.909Z,8.06
2019-03-28T08:28:17.226Z,8.17
2019-03-28T08:29:16.539Z,8.39
2019-03-28T08:30:18.960Z,8.36
2019-03-28T08:31:16.853Z,8.17
2019-03-28T08:32:17.164Z,8.12
2019-03-28T08:33:16.457Z,8.24
2019-03-28T08:34:16.769Z,8.13
2019-03-28T08:35:17.053Z,8.24
2019-03-28T08:36:16.385Z,8.16
2019-03-28T08:37:16.697Z,8.33
2019-03-28T08:38:16.992Z,8.39
2019-03-28T08:39:16.259Z,8.26
2019-03-28T08:40:16.613Z,8.21
2019-03-28T08:41:16.632Z,8.31
2019-03-28T08:42:16.913Z,8.34
2019-03-28T08:43:17.232Z,8.44
2019-03-28T08:44:16.522Z,8.50
2019-03-28T08:45:16.799Z,8.68
2019-03-28T08:46:17.119Z,8.55
2019-03-28T08:47:16.479Z,8.54
2019-03-28T08:48:16.796Z,8.55
2019-03-28T08:49:17.126Z,8.61
2019-03-28T08:50:16.447Z,8.52
2019-03-28T08:51:16.527Z,8.52
2019-03-28T08:52:16.844Z,8.52
2019-03-28T08:53:17.149Z,8.71
2019-03-28T08:54:16.443Z,8.95
2019-03-28T08:55:16.757Z,8.94
2019-03-28T08:56:17.056Z,8.71
2019-03-28T08:57:16.373Z,8.91
2019-03-28T08:58:16.708Z,8.88
2019-03-28T08:59:16.997Z,9.03
2019-03-28T09:00:16.917Z,9.19
2019-03-28T09:01:16.359Z,9.27
2019-03-28T09:02:16.669Z,9.45
2019-03-28T09:03:16.960Z,9.50
2019-03-28T09:04:16.305Z,9.62
2019-03-28T09:05:16.617Z,9.76
2019-03-28T09:06:17.162Z,9.78
2019-03-28T09:07:17.455Z,9.72
2019-03-28T09:08:16.951Z,9.27
2019-03-28T09:09:16.261Z,9.36
2019-03-28T09:10:16.546Z,9.47
2019-03-28T09:11:16.594Z,9.37
2019-03-28T09:12:16.982Z,9.22
2019-03-28T09:13:16.266Z,9.02
2019-03-28T09:14:16.584Z,9.40
2019-03-28T09:15:16.896Z,9.58
2019-03-28T09:16:17.166Z,9.45
2019-03-28T09:17:16.509Z,9.38
2019-03-28T09:18:16.818Z,9.47
2019-03-28T09:19:17.153Z,9.65
2019-03-28T09:20:16.475Z,9.50
2019-03-28T09:21:16.520Z,9.75
2019-03-28T09:22:16.812Z,9.58
2019-03-28T09:23:17.116Z,9.81
2019-03-28T09:24:16.444Z,9.69
2019-03-28T09:25:16.783Z,9.84
2019-03-28T09:26:17.108Z,9.91
2019-03-28T09:27:16.445Z,9.93
2019-03-28T09:28:16.731Z,10.02
2019-03-28T09:29:17.035Z,9.88
2019-03-28T09:30:16.362Z,9.92
2019-03-28T09:31:20.003Z,9.75
2019-03-28T09:32:16.819Z,9.85
2019-03-28T09:33:17.156Z,9.91
2019-03-28T09:34:16.508Z,10.09
2019-03-28T09:35:16.860Z,10.16
2019-03-28T09:36:17.149Z,10.26
2019-03-28T09:37:16.476Z,10.14
2019-03-28T09:38:16.800Z,10.10
2019-03-28T09:39:17.109Z,10.20
2019-03-28T09:40:16.432Z,9.80
2019-03-28T09:41:16.498Z,9.88
2019-03-28T09:42:16.807Z,10.16
2019-03-28T09:43:17.102Z,10.31
2019-03-28T09:44:16.427Z,10.26
2019-03-28T09:45:16.729Z,10.20
2019-03-28T09:46:17.004Z,10.37
2019-03-28T09:47:16.313Z,10.40
2019-03-28T09:48:16.604Z,10.13
2019-03-28T09:49:16.909Z,9.86
2019-03-28T09:50:17.250Z,9.89
2019-03-28T09:51:16.258Z,10.03
2019-03-28T09:52:16.581Z,10.12
2019-03-28T09:53:16.894Z,10.47
2019-03-28T09:54:17.205Z,10.71
2019-03-28T09:55:18.822Z,10.61
2019-03-28T09:56:16.408Z,10.56
2019-03-28T09:57:16.707Z,10.74
2019-03-28T09:58:17.018Z,10.29
2019-03-28T09:59:16.329Z,10.58
2019-03-28T10:00:16.637Z,10.37
2019-03-28T10:01:16.695Z,10.36
2019-03-28T10:02:16.994Z,10.52
2019-03-28T10:03:16.299Z,10.61
2019-03-28T10:04:16.639Z,10.61
2019-03-28T10:05:16.960Z,10.23
2019-03-28T10:06:16.454Z,10.52
2019-03-28T10:07:16.795Z,10.67
2019-03-28T10:08:17.087Z,10.72
2019-03-28T10:09:16.397Z,10.65
2019-03-28T10:10:16.705Z,10.79
2019-03-28T10:11:16.733Z,10.81
2019-03-28T10:12:17.053Z,11.02
2019-03-28T10:13:16.356Z,11.06
2019-03-28T10:14:16.712Z,11.05
2019-03-28T10:15:17.836Z,10.64
2019-03-28T10:16:16.337Z,10.81
2019-03-28T10:17:16.667Z,10.58
2019-03-28T10:18:16.975Z,10.85
2019-03-28T10:19:16.288Z,10.57
2019-03-28T10:20:16.589Z,10.23
2019-03-28T10:21:16.642Z,10.19
2019-03-28T10:22:16.946Z,10.45
2019-03-28T10:23:16.258Z,10.63
2019-03-28T10:24:16.572Z,10.47
2019-03-28T10:25:16.894Z,10.58
2019-03-28T10:26:17.156Z,10.63
2019-03-28T10:27:19.020Z,10.89
2019-03-28T10:28:16.729Z,10.92
2019-03-28T10:29:17.055Z,10.89
2019-03-28T10:30:16.396Z,10.98
2019-03-28T10:31:16.959Z,10.98
2019-03-28T10:32:16.414Z,11.36
2019-03-28T10:33:16.739Z,11.43
2019-03-28T10:34:17.034Z,11.13
2019-03-28T10:35:16.344Z,11.31
2019-03-28T10:36:16.672Z,11.22
2019-03-28T10:37:16.992Z,10.96
2019-03-28T10:38:16.287Z,11.07
2019-03-28T10:39:16.594Z,10.89
2019-03-28T10:40:16.918Z,10.98
2019-03-28T10:41:16.941Z,11.34
2019-03-28T10:42:16.247Z,11.43
2019-03-28T10:43:16.583Z,11.49
2019-03-28T10:44:16.873Z,11.50
2019-03-28T10:45:17.210Z,11.63
2019-03-28T10:46:16.495Z,11.75
2019-03-28T10:47:16.799Z,11.84
2019-03-28T10:48:17.106Z,11.74
2019-03-28T10:49:16.436Z,11.55
2019-03-28T10:50:16.748Z,11.80
2019-03-28T10:51:16.782Z,12.19
2019-03-28T10:52:17.103Z,12.49
2019-03-28T10:53:16.411Z,11.74
2019-03-28T10:54:20.266Z,11.75
2019-03-28T10:55:16.707Z,11.98
2019-03-28T10:56:21.718Z,12.08
2019-03-28T10:57:29.205Z,12.23
2019-03-28T10:58:18.549Z,12.63
2019-03-28T10:59:23.412Z,12.56
2019-03-28T11:00:23.713Z,12.35
2019-03-28T11:01:21.574Z,12.57
2019-03-28T11:02:17.066Z,11.72
2019-03-28T11:03:16.401Z,11.64
2019-03-28T11:04:16.745Z,11.96
2019-03-28T11:05:17.066Z,11.96
2019-03-28T11:06:16.373Z,12.29
2019-03-28T11:07:16.716Z,12.44
2019-03-28T11:08:17.018Z,12.19
2019-03-28T11:09:16.340Z,12.23
2019-03-28T11:10:16.665Z,12.54
2019-03-28T11:11:16.697Z,11.99
2019-03-28T11:12:17.021Z,11.68
2019-03-28T11:13:16.326Z,11.39
2019-03-28T11:14:16.659Z,11.72
2019-03-28T11:15:16.974Z,11.77
2019-03-28T11:16:16.257Z,11.95
2019-03-28T11:17:16.557Z,12.13
2019-03-28T11:18:16.856Z,12.06
2019-03-28T11:19:17.632Z,12.32
2019-03-28T11:20:17.145Z,12.30
2019-03-28T11:21:17.195Z,12.08
2019-03-28T11:22:16.497Z,12.30
2019-03-28T11:23:16.805Z,12.33
2019-03-28T11:24:17.101Z,12.35
2019-03-28T11:25:16.425Z,12.35
2019-03-28T11:26:16.722Z,12.50
2019-03-28T11:27:17.056Z,12.40
2019-03-28T11:28:16.327Z,11.77
2019-03-28T11:29:16.652Z,12.12
2019-03-28T11:30:18.443Z,12.19
2019-03-28T11:31:17.689Z,12.25
2019-03-28T11:32:17.122Z,12.37
2019-03-28T11:33:16.476Z,12.88
2019-03-28T11:34:16.773Z,12.99
2019-03-28T11:35:17.083Z,13.05
2019-03-28T11:36:16.451Z,12.53
2019-03-28T11:37:25.694Z,12.54
2019-03-28T11:38:17.049Z,12.68
2019-03-28T11:39:16.510Z,12.57
2019-03-28T11:40:16.819Z,11.88
2019-03-28T11:41:16.882Z,11.60
2019-03-28T11:42:16.246Z,11.80
2019-03-28T11:43:16.671Z,12.35
2019-03-28T11:44:17.040Z,12.51
2019-03-28T11:45:16.363Z,12.43
2019-03-28T11:46:16.651Z,12.39
2019-03-28T11:47:16.951Z,12.30
2019-03-28T11:48:16.267Z,12.49
2019-03-28T11:49:16.559Z,12.66
2019-03-28T11:50:17.344Z,12.68
2019-03-28T11:51:16.988Z,12.75
2019-03-28T11:52:16.295Z,12.61
2019-03-28T11:53:16.603Z,12.56
2019-03-28T11:54:16.894Z,12.51
2019-03-28T11:55:16.255Z,12.37
2019-03-28T11:56:16.551Z,12.51
2019-03-28T11:57:16.880Z,12.51
2019-03-28T11:58:17.189Z,12.37
2019-03-28T11:59:16.468Z,12.33
2019-03-28T12:00:16.781Z,12.26
2019-03-28T12:01:16.804Z,12.08
2019-03-28T12:02:19.934Z,12.03
2019-03-28T12:03:17.086Z,12.16
2019-03-28T12:04:16.384Z,12.06
2019-03-28T12:05:16.714Z,11.86
2019-03-28T12:06:17.004Z,11.96
2019-03-28T12:07:16.283Z,11.92
2019-03-28T12:08:16.564Z,11.96
2019-03-28T12:09:16.855Z,12.06
2019-03-28T12:10:17.187Z,12.09
2019-03-28T12:11:16.227Z,12.30
2019-03-28T12:12:16.510Z,12.35
2019-03-28T12:13:16.841Z,12.30
2019-03-28T12:14:17.147Z,12.43
2019-03-28T12:15:16.449Z,12.26
2019-03-28T12:16:17.073Z,12.54
2019-03-28T12:17:16.636Z,12.98
2019-03-28T12:18:16.964Z,12.91
2019-03-28T12:19:17.697Z,12.68
2019-03-28T12:20:16.262Z,12.49
2019-03-28T12:21:16.320Z,12.74
2019-03-28T12:22:16.616Z,13.26
2019-03-28T12:23:16.969Z,13.26
2019-03-28T12:24:16.268Z,13.23
2019-03-28T12:25:16.576Z,12.99
2019-03-28T12:26:16.873Z,13.05
2019-03-28T12:27:17.192Z,13.08
2019-03-28T12:28:16.514Z,12.87
2019-03-28T12:29:16.803Z,13.15
2019-03-28T12:30:17.953Z,13.15
2019-03-28T12:31:17.217Z,13.40
2019-03-28T12:32:16.520Z,13.29
2019-03-28T12:33:16.828Z,13.36
2019-03-28T12:34:17.137Z,13.43
2019-03-28T12:35:16.421Z,13.37
2019-03-28T12:36:16.707Z,13.14
2019-03-28T12:37:17.028Z,13.15
2019-03-28T12:38:16.342Z,12.71
2019-03-28T12:39:16.630Z,12.19
2019-03-28T12:40:17.000Z,12.08
2019-03-28T12:41:16.986Z,12.06
2019-03-28T12:42:16.326Z,12.25
2019-03-28T12:43:16.602Z,12.19
2019-03-28T12:44:16.887Z,12.28
2019-03-28T12:45:17.221Z,12.16
2019-03-28T12:46:16.527Z,11.98
2019-03-28T12:47:16.807Z,12.25
2019-03-28T12:48:17.100Z,12.39
2019-03-28T12:49:16.429Z,12.26
2019-03-28T12:50:16.822Z,12.40
2019-03-28T12:51:16.877Z,12.11
2019-03-28T12:52:17.221Z,12.22
2019-03-28T12:53:16.576Z,12.12
2019-03-28T12:54:16.846Z,12.25
2019-03-28T12:55:17.118Z,12.63
2019-03-28T12:56:16.409Z,12.33
2019-03-28T12:57:16.727Z,12.66
2019-03-28T12:58:17.013Z,12.88
2019-03-28T12:59:16.300Z,12.50
2019-03-28T13:00:16.599Z,12.53
2019-03-28T13:01:16.688Z,12.40
2019-03-28T13:02:27.398Z,12.13
2019-03-28T13:03:17.177Z,12.13
2019-03-28T13:04:16.508Z,12.25
2019-03-28T13:05:16.854Z,12.28
2019-03-28T13:06:17.220Z,12.35
2019-03-28T13:07:16.519Z,12.58
2019-03-28T13:08:17.608Z,12.84
2019-03-28T13:09:16.241Z,12.79
2019-03-28T13:10:16.541Z,13.01
2019-03-28T13:11:16.587Z,12.99